Time;durP1;ratioP1;P1;durP2;ratioP2;P2;SDS_P1;SDS_P2;PMS_P1;PMS_P2;Temp;Humidity;BMP_temperature;BMP_pressure;BME280_temperature;BME280_humidity;BME280_pressure;Samples;Min_cycle;Max_cycle;Signal;HPM_P1;HPM_P2
2021/04/25 00:00:15;;;;;;;9.07;4.87;;;19.10;32.40;;;;;;5045292;28;20455;-45
2021/04/25 00:02:41;;;;;;;7.43;4.67;;;19.10;32.40;;;;;;5043390;28;21044;-44
2021/04/25 00:05:09;;;;;;;6.03;4.80;;;19.10;32.50;;;;;;5040659;28;20523;-44
2021/04/25 00:07:35;;;;;;;7.20;4.33;;;19.10;32.30;;;;;;5039490;28;20216;-43
2021/04/25 00:10:00;;;;;;;6.13;4.60;;;19.10;32.20;;;;;;5047852;28;20478;-43
2021/04/25 00:12:26;;;;;;;7.77;5.20;;;19.00;32.10;;;;;;5044135;28;20208;-43
2021/04/25 00:14:52;;;;;;;7.67;3.80;;;19.00;32.30;;;;;;5045692;28;20200;-43
2021/04/25 00:17:17;;;;;;;5.03;4.00;;;18.90;32.30;;;;;;5048841;28;20612;-43
2021/04/25 00:19:43;;;;;;;8.60;4.93;;;18.90;32.50;;;;;;5045716;28;20254;-44
2021/04/25 00:22:09;;;;;;;9.50;4.37;;;18.90;32.50;;;;;;5039578;28;20270;-45
2021/04/25 00:24:34;;;;;;;5.13;4.20;;;18.90;32.60;;;;;;5048828;28;20561;-43
2021/04/25 00:27:01;;;;;;;7.10;4.53;;;18.80;32.40;;;;;;5043304;28;20203;-44
2021/04/25 00:29:26;;;;;;;5.27;4.67;;;18.80;32.60;;;;;;5040552;28;20190;-43
2021/04/25 00:31:52;;;;;;;6.30;4.50;;;18.80;32.80;;;;;;5051326;28;20442;-43
2021/04/25 00:34:18;;;;;;;8.00;4.50;;;18.80;33.20;;;;;;5048560;28;20267;-43
2021/04/25 00:36:44;;;;;;;6.07;5.47;;;18.80;33.00;;;;;;5050285;28;20192;-45
2021/04/25 00:39:09;;;;;;;5.73;4.17;;;18.80;33.00;;;;;;5049441;28;20538;-44
2021/04/25 00:41:35;;;;;;;5.57;4.60;;;18.70;33.00;;;;;;5050080;28;20610;-43
2021/04/25 00:44:02;;;;;;;5.70;5.10;;;18.60;33.20;;;;;;5048625;28;20227;-44
2021/04/25 00:46:27;;;;;;;6.67;4.23;;;18.60;33.40;;;;;;5049764;28;20200;-44
2021/04/25 00:48:53;;;;;;;6.60;4.30;;;18.50;33.50;;;;;;5046486;28;20974;-45
2021/04/25 00:51:22;;;;;;;5.20;4.70;;;18.50;33.40;;;;;;5046855;28;20189;-43
2021/04/25 00:53:49;;;;;;;6.77;5.40;;;18.50;33.60;;;;;;5050375;28;20188;-43
2021/04/25 00:56:16;;;;;;;5.20;4.60;;;18.50;33.40;;;;;;5052631;28;20442;-43
2021/04/25 00:58:42;;;;;;;7.37;4.40;;;18.50;33.30;;;;;;5052602;28;20445;-43
2021/04/25 01:01:08;;;;;;;6.70;4.60;;;18.50;33.40;;;;;;5048141;28;20522;-43
2021/04/25 01:03:34;;;;;;;6.80;4.40;;;18.50;33.50;;;;;;5049365;28;20582;-44
2021/04/25 01:05:59;;;;;;;4.97;4.23;;;18.50;33.40;;;;;;5046958;28;20477;-45
2021/04/25 01:08:25;;;;;;;8.27;4.50;;;18.50;33.50;;;;;;5042601;28;20239;-43
2021/04/25 01:10:51;;;;;;;7.13;5.30;;;18.40;33.60;;;;;;5052746;28;20219;-45
2021/04/25 01:13:18;;;;;;;5.83;5.23;;;18.30;33.50;;;;;;5047851;28;20267;-44
2021/04/25 01:15:43;;;;;;;6.90;4.33;;;18.20;33.60;;;;;;5049225;28;20247;-44
2021/04/25 01:18:09;;;;;;;5.07;4.20;;;17.90;33.80;;;;;;5048531;28;20435;-45
2021/04/25 01:20:35;;;;;;;6.53;4.00;;;17.60;34.20;;;;;;5048536;28;20196;-45
2021/04/25 01:23:00;;;;;;;5.63;5.03;;;17.40;34.70;;;;;;5047127;28;20224;-46
2021/04/25 01:25:27;;;;;;;8.93;5.50;;;17.10;35.30;;;;;;5046545;28;20201;-44
2021/04/25 01:27:53;;;;;;;6.13;4.73;;;16.80;35.80;;;;;;5049386;28;20215;-45
2021/04/25 01:30:25;;;;;;;9.70;4.90;;;16.60;36.20;;;;;;5046685;28;20511;-44
2021/04/25 01:32:51;;;;;;;8.30;4.93;;;16.50;36.50;;;;;;5050973;28;20450;-44
2021/04/25 01:35:22;;;;;;;8.33;5.30;;;16.30;36.80;;;;;;5046064;28;20559;-44
2021/04/25 01:37:56;;;;;;;6.00;4.30;;;16.10;37.10;;;;;;5048479;28;20852;-44
2021/04/25 01:40:27;;;;;;;9.90;5.20;;;16.00;37.50;;;;;;5046635;28;20443;-44
2021/04/25 01:42:54;;;;;;;8.53;5.30;;;15.80;37.70;;;;;;5047678;28;20470;-47
2021/04/25 01:45:20;;;;;;;6.23;4.80;;;15.70;38.00;;;;;;5045980;28;20454;-44
2021/04/25 01:47:49;;;;;;;10.57;5.63;;;15.60;38.40;;;;;;5050181;28;20446;-46
2021/04/25 01:50:16;;;;;;;8.73;5.37;;;15.50;38.50;;;;;;5048559;28;20439;-45
2021/04/25 01:52:42;;;;;;;7.60;4.90;;;15.50;38.80;;;;;;5051902;28;20454;-45
2021/04/25 01:55:09;;;;;;;8.07;4.93;;;15.40;38.80;;;;;;5048443;28;20807;-46
2021/04/25 01:57:35;;;;;;;6.40;5.23;;;15.40;39.00;;;;;;5044236;28;20192;-44
2021/04/25 02:00:01;;;;;;;6.17;5.13;;;15.30;39.10;;;;;;5049375;28;20786;-44
2021/04/25 02:02:28;;;;;;;5.77;5.10;;;15.30;39.20;;;;;;5051312;28;20236;-45
2021/04/25 02:04:53;;;;;;;6.47;5.30;;;15.20;39.20;;;;;;5052513;28;20442;-45
2021/04/25 02:07:19;;;;;;;8.43;5.73;;;15.20;39.50;;;;;;5045035;28;20447;-45
2021/04/25 02:09:45;;;;;;;7.20;5.20;;;15.10;39.50;;;;;;5046340;28;20211;-45
2021/04/25 02:12:10;;;;;;;10.53;5.30;;;15.00;39.70;;;;;;5047236;28;20204;-45
2021/04/25 02:14:36;;;;;;;7.60;5.33;;;15.00;40.00;;;;;;5047462;28;20660;-45
2021/04/25 02:17:03;;;;;;;7.43;4.90;;;14.90;40.10;;;;;;5044469;28;20660;-44
2021/04/25 02:19:28;;;;;;;8.63;5.00;;;14.90;40.30;;;;;;5051861;28;20869;-45
2021/04/25 02:21:54;;;;;;;5.93;4.87;;;14.80;40.20;;;;;;5048963;28;20448;-45
2021/04/25 02:24:19;;;;;;;9.13;5.70;;;14.70;40.40;;;;;;5044808;28;20228;-44
2021/04/25 02:26:45;;;;;;;5.57;4.97;;;14.60;41.00;;;;;;5047885;28;20192;-44
2021/04/25 02:29:11;;;;;;;7.97;5.20;;;14.70;40.70;;;;;;5048640;28;20193;-45
2021/04/25 02:31:36;;;;;;;6.70;5.37;;;14.60;40.60;;;;;;5050505;28;20193;-44
2021/04/25 02:34:03;;;;;;;6.20;5.07;;;14.60;40.90;;;;;;5045891;28;20622;-44
2021/04/25 02:36:28;;;;;;;7.43;6.03;;;14.60;41.00;;;;;;5047908;28;20195;-45
2021/04/25 02:38:54;;;;;;;7.23;5.50;;;14.60;41.10;;;;;;5047471;28;20447;-47
2021/04/25 02:41:19;;;;;;;7.30;5.10;;;14.40;40.90;;;;;;5049071;28;20197;-45
2021/04/25 02:43:45;;;;;;;9.30;4.87;;;14.40;40.70;;;;;;5047226;28;20315;-44
2021/04/25 02:46:10;;;;;;;5.43;4.87;;;14.40;40.70;;;;;;5044711;28;20196;-44
2021/04/25 02:48:36;;;;;;;6.33;5.27;;;14.30;40.70;;;;;;5045198;28;20374;-45
2021/04/25 02:51:02;;;;;;;8.63;5.20;;;14.20;40.70;;;;;;5044231;28;20279;-46
2021/04/25 02:53:27;;;;;;;6.80;4.53;;;14.10;40.90;;;;;;5044578;28;20242;-44
2021/04/25 02:55:53;;;;;;;7.27;4.87;;;14.10;41.10;;;;;;5039817;28;20708;-44
2021/04/25 02:58:18;;;;;;;4.83;4.33;;;14.10;41.20;;;;;;5048615;28;20184;-46
2021/04/25 03:00:44;;;;;;;8.10;5.57;;;14.00;41.40;;;;;;5045121;28;20725;-46
2021/04/25 03:03:10;;;;;;;8.00;4.83;;;13.90;41.60;;;;;;5048810;28;20307;-45
2021/04/25 03:05:36;;;;;;;5.90;4.60;;;13.80;41.60;;;;;;5047946;28;20191;-45
2021/04/25 03:08:01;;;;;;;6.70;5.37;;;13.70;41.70;;;;;;5036985;28;20197;-45
2021/04/25 03:10:28;;;;;;;7.43;5.83;;;13.60;41.90;;;;;;5049649;28;20201;-45
2021/04/25 03:12:54;;;;;;;7.80;5.80;;;13.50;42.20;;;;;;5044973;28;20552;-44
2021/04/25 03:15:21;;;;;;;6.73;5.23;;;13.40;42.30;;;;;;5042562;28;20438;-45
2021/04/25 03:17:47;;;;;;;7.83;5.60;;;13.30;42.60;;;;;;5050526;28;20485;-44
2021/04/25 03:20:15;;;;;;;10.20;6.20;;;13.30;42.60;;;;;;5050660;28;20483;-45
2021/04/25 03:22:41;;;;;;;7.83;6.30;;;13.30;42.50;;;;;;5048816;28;20510;-45
2021/04/25 03:25:08;;;;;;;5.57;4.40;;;13.30;42.40;;;;;;5048545;28;20859;-44
2021/04/25 03:27:34;;;;;;;7.07;5.43;;;13.30;42.40;;;;;;5047607;28;20204;-45
2021/04/25 03:30:00;;;;;;;5.67;4.83;;;13.30;42.50;;;;;;5044939;28;20946;-45
2021/04/25 03:32:25;;;;;;;8.10;4.70;;;13.30;42.40;;;;;;5049407;28;20441;-44
2021/04/25 03:34:51;;;;;;;6.27;4.93;;;13.30;42.50;;;;;;5039472;28;20324;-45
2021/04/25 03:37:17;;;;;;;7.83;5.50;;;13.30;42.50;;;;;;5046331;28;20223;-46
2021/04/25 03:39:43;;;;;;;8.30;4.80;;;13.20;42.40;;;;;;5047278;28;20473;-44
2021/04/25 03:42:09;;;;;;;6.30;4.33;;;13.20;42.60;;;;;;5047017;28;20196;-45
2021/04/25 03:44:34;;;;;;;8.47;5.40;;;13.20;42.70;;;;;;5045312;28;20307;-45
2021/04/25 03:47:00;;;;;;;9.30;5.10;;;13.20;42.70;;;;;;5045053;28;20538;-45
2021/04/25 03:49:26;;;;;;;5.53;4.77;;;13.20;42.80;;;;;;5044932;28;20682;-47
2021/04/25 03:51:52;;;;;;;9.20;6.50;;;13.10;42.90;;;;;;5046576;28;20246;-45
2021/04/25 03:54:18;;;;;;;6.90;5.30;;;13.10;43.10;;;;;;5049076;28;20231;-48
2021/04/25 03:56:45;;;;;;;10.17;4.53;;;13.00;43.20;;;;;;5043114;28;20494;-47
2021/04/25 03:59:10;;;;;;;13.60;5.07;;;13.00;43.30;;;;;;5046117;28;20443;-47
2021/04/25 04:01:36;;;;;;;8.27;5.37;;;13.00;43.10;;;;;;5038027;28;20489;-45
2021/04/25 04:04:03;;;;;;;9.37;4.90;;;13.00;43.10;;;;;;5047397;28;20220;-44
2021/04/25 04:06:28;;;;;;;6.40;4.70;;;13.00;43.00;;;;;;5044600;28;20192;-44
2021/04/25 04:08:54;;;;;;;10.17;5.33;;;12.90;43.20;;;;;;5048965;28;20905;-46
2021/04/25 04:11:20;;;;;;;6.20;4.67;;;12.90;43.10;;;;;;5043592;28;20609;-45
2021/04/25 04:13:45;;;;;;;10.07;5.73;;;12.90;43.10;;;;;;5047362;28;20192;-44
2021/04/25 04:16:11;;;;;;;6.30;5.20;;;12.80;43.20;;;;;;5040494;28;20242;-47
2021/04/25 04:18:37;;;;;;;5.87;4.70;;;12.80;43.40;;;;;;5046580;28;20227;-45
2021/04/25 04:21:03;;;;;;;7.27;4.93;;;12.80;43.40;;;;;;5047469;28;20231;-46
2021/04/25 04:23:28;;;;;;;8.20;5.10;;;12.70;43.50;;;;;;5040963;28;20244;-44
2021/04/25 04:25:54;;;;;;;8.40;5.27;;;12.70;43.60;;;;;;5047475;28;20447;-44
2021/04/25 04:28:19;;;;;;;8.53;5.33;;;12.60;43.60;;;;;;5043328;28;20246;-45
2021/04/25 04:30:45;;;;;;;9.00;5.97;;;12.60;43.70;;;;;;5043777;28;20668;-47
2021/04/25 04:33:11;;;;;;;6.70;4.97;;;12.60;43.60;;;;;;5041990;28;20219;-45
2021/04/25 04:35:36;;;;;;;7.10;5.43;;;12.60;43.60;;;;;;5041734;28;20232;-44
2021/04/25 04:38:02;;;;;;;9.70;5.73;;;12.60;43.50;;;;;;5046429;28;20268;-44
2021/04/25 04:40:27;;;;;;;7.13;4.90;;;12.60;43.60;;;;;;5047066;28;20201;-45
2021/04/25 04:42:53;;;;;;;7.23;5.30;;;12.60;43.60;;;;;;5043617;28;20243;-45
2021/04/25 04:45:19;;;;;;;10.03;6.20;;;12.60;43.70;;;;;;5040942;28;20193;-45
2021/04/25 04:47:47;;;;;;;6.33;5.50;;;12.50;43.80;;;;;;5044099;28;20220;-44
2021/04/25 04:50:15;;;;;;;10.20;6.13;;;12.40;44.00;;;;;;5037939;28;20232;-45
2021/04/25 04:52:41;;;;;;;7.80;5.50;;;12.50;44.10;;;;;;5043200;28;20887;-45
2021/04/25 04:55:08;;;;;;;8.80;5.83;;;12.50;44.10;;;;;;5041441;28;20448;-46
2021/04/25 04:57:33;;;;;;;8.50;5.07;;;12.40;44.30;;;;;;5039781;28;20439;-45
2021/04/25 04:59:59;;;;;;;10.90;6.30;;;12.30;44.50;;;;;;5044468;28;20435;-45
2021/04/25 05:02:25;;;;;;;8.77;5.97;;;12.20;44.60;;;;;;5044955;28;20559;-47
2021/04/25 05:04:50;;;;;;;11.33;5.20;;;12.30;44.50;;;;;;5045289;28;20514;-46
2021/04/25 05:07:16;;;;;;;6.57;5.53;;;12.30;44.60;;;;;;5042339;28;20294;-43
2021/04/25 05:09:42;;;;;;;8.30;5.90;;;12.30;44.70;;;;;;5045844;28;20473;-46
2021/04/25 05:12:08;;;;;;;7.27;5.80;;;12.40;44.90;;;;;;5046720;28;20187;-45
2021/04/25 05:14:33;;;;;;;8.43;5.73;;;12.40;45.00;;;;;;5047944;28;20205;-46
2021/04/25 05:16:59;;;;;;;7.63;5.50;;;12.40;45.10;;;;;;5045346;28;20534;-44
2021/04/25 05:19:24;;;;;;;11.27;4.50;;;12.40;45.20;;;;;;5045342;28;20196;-43
2021/04/25 05:21:50;;;;;;;10.80;5.43;;;12.60;50.30;;;;;;5045170;28;20196;-44
2021/04/25 05:24:16;;;;;;;6.23;4.77;;;13.20;46.50;;;;;;5043009;28;20253;-43
2021/04/25 05:26:42;;;;;;;8.50;4.90;;;13.70;44.10;;;;;;5049711;28;20564;-46
2021/04/25 05:29:07;;;;;;;7.00;4.97;;;14.20;42.70;;;;;;5051715;28;20504;-45
2021/04/25 05:31:33;;;;;;;8.23;5.60;;;14.70;41.70;;;;;;5047950;28;20184;-45
2021/04/25 05:33:59;;;;;;;8.80;5.33;;;15.00;40.80;;;;;;5046297;28;20201;-45
2021/04/25 05:36:25;;;;;;;9.03;4.83;;;15.30;40.30;;;;;;5048235;28;20279;-46
2021/04/25 05:38:50;;;;;;;7.37;5.57;;;15.50;39.70;;;;;;5049770;28;20291;-43
2021/04/25 05:41:17;;;;;;;6.27;4.40;;;15.70;39.70;;;;;;5050678;28;20192;-46
2021/04/25 05:43:45;;;;;;;6.67;5.23;;;15.90;39.50;;;;;;5048898;28;20228;-46
2021/04/25 05:46:11;;;;;;;12.00;4.60;;;16.00;39.00;;;;;;5052246;28;20435;-46
2021/04/25 05:48:37;;;;;;;8.50;6.03;;;16.20;38.60;;;;;;5052630;28;20427;-45
2021/04/25 05:51:03;;;;;;;5.90;4.80;;;16.30;38.20;;;;;;5051898;28;20662;-44
2021/04/25 05:53:28;;;;;;;7.37;5.30;;;16.50;38.60;;;;;;5042565;28;20192;-45
2021/04/25 05:55:54;;;;;;;10.87;5.83;;;16.50;37.70;;;;;;5049690;28;20204;-44
2021/04/25 05:58:19;;;;;;;7.37;5.17;;;16.70;37.50;;;;;;5047154;28;20197;-46
2021/04/25 06:00:45;;;;;;;6.90;5.73;;;16.70;37.30;;;;;;5050122;28;20192;-45
2021/04/25 06:03:10;;;;;;;7.27;5.60;;;16.80;37.20;;;;;;5051325;28;20216;-45
2021/04/25 06:05:36;;;;;;;7.20;5.13;;;16.90;37.10;;;;;;5049331;28;20183;-43
2021/04/25 06:08:03;;;;;;;6.93;4.80;;;16.90;37.10;;;;;;5052844;28;20196;-45
2021/04/25 06:10:28;;;;;;;5.80;5.13;;;17.00;37.00;;;;;;5051811;28;20285;-44
2021/04/25 06:12:54;;;;;;;8.23;6.60;;;17.20;36.90;;;;;;5051433;28;20941;-44
2021/04/25 06:15:22;;;;;;;9.83;5.80;;;17.20;36.90;;;;;;5052778;28;20200;-46
2021/04/25 06:17:49;;;;;;;8.23;5.43;;;17.30;37.10;;;;;;5052159;28;20193;-46
2021/04/25 06:20:16;;;;;;;7.20;6.23;;;17.30;37.00;;;;;;5049628;28;20447;-46
2021/04/25 06:22:43;;;;;;;10.70;6.43;;;17.50;37.00;;;;;;5043163;28;20481;-43
2021/04/25 06:25:10;;;;;;;9.10;6.40;;;17.50;36.90;;;;;;5048952;28;20530;-46
2021/04/25 06:27:36;;;;;;;8.13;5.90;;;17.50;36.80;;;;;;5050043;28;20450;-45
2021/04/25 06:30:02;;;;;;;10.60;6.50;;;17.60;36.90;;;;;;5050298;28;20427;-45
2021/04/25 06:32:28;;;;;;;8.80;5.87;;;17.70;36.80;;;;;;5044360;28;20292;-43
2021/04/25 06:34:53;;;;;;;9.57;6.60;;;17.70;36.70;;;;;;5046450;28;21025;-43
2021/04/25 06:37:19;;;;;;;7.47;5.57;;;17.80;36.70;;;;;;5043796;28;20219;-46
2021/04/25 06:39:45;;;;;;;7.70;5.20;;;18.00;36.70;;;;;;5052123;28;20188;-43
2021/04/25 06:42:10;;;;;;;8.67;7.13;;;18.10;36.50;;;;;;5046287;28;20264;-45
2021/04/25 06:44:36;;;;;;;9.03;6.57;;;18.20;36.40;;;;;;5049889;28;20278;-43
2021/04/25 06:47:02;;;;;;;14.37;7.87;;;18.30;36.20;;;;;;5044563;28;20714;-45
2021/04/25 06:49:28;;;;;;;8.30;6.20;;;18.40;36.10;;;;;;5049090;28;20532;-45
2021/04/25 06:51:54;;;;;;;8.33;7.00;;;18.50;36.10;;;;;;5039677;28;20817;-45
2021/04/25 06:54:20;;;;;;;9.43;6.80;;;18.60;36.20;;;;;;5051173;28;20445;-45
2021/04/25 06:56:46;;;;;;;9.57;6.70;;;18.70;36.00;;;;;;5046508;28;20437;-45
2021/04/25 06:59:12;;;;;;;9.70;6.70;;;18.80;35.80;;;;;;5050189;28;20196;-44
2021/04/25 07:01:37;;;;;;;12.90;8.50;;;19.00;35.80;;;;;;5049703;28;20435;-43
2021/04/25 07:04:03;;;;;;;9.90;8.33;;;19.10;35.70;;;;;;5048560;28;20228;-45
2021/04/25 07:06:28;;;;;;;12.00;7.97;;;19.00;36.00;;;;;;5043754;28;20559;-46
2021/04/25 07:08:54;;;;;;;11.37;8.30;;;19.10;36.20;;;;;;5043395;28;20192;-46
2021/04/25 07:11:20;;;;;;;13.67;7.83;;;19.20;35.50;;;;;;5046869;28;20207;-45
2021/04/25 07:13:45;;;;;;;8.83;7.33;;;19.30;35.80;;;;;;5049503;28;20222;-45
2021/04/25 07:16:11;;;;;;;9.30;7.70;;;19.40;35.30;;;;;;5030290;28;20239;-46
2021/04/25 07:18:36;;;;;;;9.07;8.17;;;19.50;35.00;;;;;;5049373;28;20271;-47
2021/04/25 07:21:02;;;;;;;9.43;8.50;;;19.60;34.80;;;;;;5051630;28;20192;-43
2021/04/25 07:23:28;;;;;;;11.23;9.43;;;19.70;34.70;;;;;;5051918;28;20318;-44
2021/04/25 07:25:57;;;;;;;10.20;8.23;;;19.80;34.30;;;;;;5052049;28;20200;-45
2021/04/25 07:28:26;;;;;;;8.37;7.40;;;19.90;34.30;;;;;;5051464;28;20196;-45
2021/04/25 07:30:52;;;;;;;11.50;9.23;;;20.00;34.70;;;;;;5046442;28;20514;-46
2021/04/25 07:33:19;;;;;;;9.90;7.63;;;20.10;34.40;;;;;;5050654;28;20443;-49
2021/04/25 07:35:44;;;;;;;12.10;8.03;;;20.10;34.40;;;;;;5047002;28;20459;-50
2021/04/25 07:38:11;;;;;;;10.23;9.00;;;20.20;34.20;;;;;;5050515;28;20773;-48
2021/04/25 07:40:38;;;;;;;13.23;8.47;;;20.30;33.90;;;;;;5051765;28;20197;-47
2021/04/25 07:43:05;;;;;;;12.23;8.13;;;20.40;33.60;;;;;;5049276;28;20590;-50
2021/04/25 07:45:31;;;;;;;11.20;9.40;;;20.50;34.00;;;;;;5051406;28;20439;-45
2021/04/25 07:47:56;;;;;;;14.17;8.77;;;20.60;34.30;;;;;;5051205;28;20431;-45
2021/04/25 07:50:22;;;;;;;12.50;9.77;;;20.70;33.70;;;;;;5051938;28;20246;-48
2021/04/25 07:52:48;;;;;;;12.00;8.23;;;20.70;33.10;;;;;;5046852;28;20193;-46
2021/04/25 07:55:14;;;;;;;10.97;9.30;;;20.70;33.60;;;;;;5031902;28;20319;-43
2021/04/25 07:57:39;;;;;;;12.93;10.00;;;20.90;33.00;;;;;;5046781;28;20650;-43
2021/04/25 08:00:07;;;;;;;9.70;8.37;;;20.70;32.50;;;;;;5032127;28;20196;-45
2021/04/25 08:02:33;;;;;;;12.63;8.50;;;20.70;33.10;;;;;;5044566;28;20237;-46
2021/04/25 08:04:58;;;;;;;11.63;10.10;;;20.70;33.70;;;;;;5031557;28;21026;-48
2021/04/25 08:07:24;;;;;;;12.00;9.00;;;20.80;34.50;;;;;;5033173;28;20660;-48
2021/04/25 08:09:50;;;;;;;13.53;9.23;;;21.00;33.60;;;;;;5050030;28;20271;-43
2021/04/25 08:12:15;;;;;;;11.73;10.10;;;21.00;32.60;;;;;;5042839;28;20220;-45
2021/04/25 08:14:41;;;;;;;12.63;9.43;;;21.00;32.70;;;;;;5038173;28;20188;-46
2021/04/25 08:17:06;;;;;;;9.00;8.10;;;21.10;32.80;;;;;;5050537;28;20196;-45
2021/04/25 08:19:32;;;;;;;12.37;9.00;;;21.10;33.00;;;;;;5036273;28;20207;-47
2021/04/25 08:21:58;;;;;;;12.03;9.80;;;21.10;33.20;;;;;;5051132;28;20200;-43
2021/04/25 08:24:23;;;;;;;14.03;10.13;;;21.10;33.00;;;;;;5050079;28;20382;-42
2021/04/25 08:26:49;;;;;;;16.13;10.10;;;21.20;33.30;;;;;;5037972;28;20185;-44
2021/04/25 08:29:15;;;;;;;12.27;10.07;;;21.20;32.90;;;;;;5032195;28;20193;-44
2021/04/25 08:31:40;;;;;;;12.20;9.43;;;21.30;32.80;;;;;;5037699;28;20718;-46
2021/04/25 08:34:06;;;;;;;13.20;9.93;;;21.40;32.80;;;;;;5036258;28;20200;-45
2021/04/25 08:36:32;;;;;;;17.80;10.50;;;21.30;33.10;;;;;;5048621;28;20201;-45
2021/04/25 08:38:58;;;;;;;15.33;9.40;;;21.40;33.70;;;;;;5043537;28;20197;-45
2021/04/25 08:41:25;;;;;;;12.17;8.80;;;21.60;33.30;;;;;;5034042;28;20726;-43
2021/04/25 08:43:51;;;;;;;13.60;9.97;;;21.70;33.20;;;;;;5031405;28;20731;-43
2021/04/25 08:46:19;;;;;;;13.43;9.60;;;21.90;32.80;;;;;;5031716;28;20464;-43
2021/04/25 08:48:49;;;;;;;12.60;9.40;;;21.90;32.70;;;;;;5044046;28;20534;-43
2021/04/25 08:51:15;;;;;;;10.53;9.43;;;21.70;31.70;;;;;;5054877;28;20441;-45
2021/04/25 08:53:42;;;;;;;12.60;9.70;;;21.80;32.70;;;;;;5054493;28;20474;-44
2021/04/25 08:56:08;;;;;;;12.10;9.47;;;21.80;32.00;;;;;;5048451;28;20791;-43
2021/04/25 08:58:34;;;;;;;10.17;9.07;;;21.90;32.30;;;;;;5049648;28;20435;-43
2021/04/25 09:01:01;;;;;;;11.27;8.03;;;22.00;31.30;;;;;;5051117;28;20250;-47
2021/04/25 09:03:26;;;;;;;10.27;8.07;;;22.10;31.30;;;;;;5050969;28;20486;-45
2021/04/25 09:05:54;;;;;;;9.47;7.60;;;22.10;30.70;;;;;;5049295;28;20507;-44
2021/04/25 09:08:19;;;;;;;8.53;7.50;;;22.20;29.60;;;;;;5051183;28;20196;-44
2021/04/25 09:10:52;;;;;;;10.97;7.50;;;22.20;29.70;;;;;;5052203;28;20505;-44
2021/04/25 09:13:20;;;;;;;9.97;8.20;;;22.20;29.80;;;;;;5039707;28;20208;-45
2021/04/25 09:15:46;;;;;;;10.80;7.80;;;22.10;30.70;;;;;;5052773;28;20450;-45
2021/04/25 09:18:12;;;;;;;9.90;8.37;;;22.40;30.40;;;;;;5053816;28;20435;-45
2021/04/25 09:20:45;;;;;;;11.60;8.23;;;22.60;30.50;;;;;;5054024;28;20438;-46
2021/04/25 09:23:29;;;;;;;11.03;7.23;;;22.80;29.80;;;;;;5047496;28;20498;-46
2021/04/25 09:26:00;;;;;;;9.53;6.90;;;22.90;30.00;;;;;;5045042;28;20435;-46
2021/04/25 09:28:27;;;;;;;7.10;5.90;;;23.10;30.50;;;;;;5052161;28;20466;-44
2021/04/25 09:31:19;;;;;;;7.33;6.70;;;23.20;28.30;;;;;;5051371;28;20452;-47
2021/04/25 09:33:50;;;;;;;9.10;7.30;;;23.30;28.20;;;;;;5051185;28;20936;-44
2021/04/25 09:36:18;;;;;;;13.90;7.33;;;23.60;29.50;;;;;;5053081;28;20475;-44
2021/04/25 09:38:44;;;;;;;8.50;7.63;;;23.70;28.80;;;;;;5052249;28;20534;-44
2021/04/25 09:41:26;;;;;;;11.43;7.87;;;23.80;28.90;;;;;;5052969;28;20526;-45
2021/04/25 09:43:52;;;;;;;10.30;7.10;;;23.90;28.90;;;;;;5051164;28;20237;-46
2021/04/25 09:46:17;;;;;;;8.40;6.47;;;24.00;29.30;;;;;;5053907;28;20462;-46
2021/04/25 09:48:43;;;;;;;8.20;7.40;;;24.20;29.00;;;;;;5053195;28;20220;-44
2021/04/25 09:51:23;;;;;;;10.87;7.57;;;24.20;28.20;;;;;;5050629;28;20309;-44
2021/04/25 09:53:49;;;;;;;7.47;6.73;;;24.20;28.50;;;;;;5053085;28;20189;-44
2021/04/25 09:56:16;;;;;;;6.83;6.20;;;24.30;28.20;;;;;;5046354;28;20531;-45
2021/04/25 09:58:57;;;;;;;9.00;7.03;;;24.20;27.60;;;;;;5051324;28;20220;-46
2021/04/25 10:01:29;;;;;;;10.30;6.23;;;24.20;27.40;;;;;;5051334;28;20442;-46
2021/04/25 10:03:56;;;;;;;8.30;5.63;;;24.40;27.80;;;;;;5049712;28;20501;-44
2021/04/25 10:06:22;;;;;;;12.30;7.83;;;24.60;28.30;;;;;;5042372;28;20470;-44
2021/04/25 10:08:51;;;;;;;10.50;6.03;;;24.90;27.50;;;;;;5050899;28;20442;-45
2021/04/25 10:11:19;;;;;;;6.53;5.87;;;25.20;27.30;;;;;;5045439;28;20439;-44
2021/04/25 10:13:46;;;;;;;7.07;5.40;;;25.30;27.40;;;;;;5052340;28;20431;-44
2021/04/25 10:16:13;;;;;;;7.10;5.13;;;25.10;26.60;;;;;;5052200;28;21228;-47
2021/04/25 10:18:39;;;;;;;5.93;4.50;;;25.30;27.00;;;;;;5053206;28;20483;-44
2021/04/25 10:21:05;;;;;;;7.43;5.57;;;25.50;26.30;;;;;;5046711;28;20436;-44
2021/04/25 10:23:31;;;;;;;8.77;5.00;;;25.70;25.90;;;;;;5052234;28;20230;-48
2021/04/25 10:25:57;;;;;;;8.70;6.10;;;25.70;26.00;;;;;;5050809;28;20482;-46
2021/04/25 10:28:34;;;;;;;6.40;5.50;;;25.70;25.40;;;;;;5052450;28;20463;-45
2021/04/25 10:31:02;;;;;;;7.00;6.30;;;25.80;26.00;;;;;;5052865;28;20434;-44
2021/04/25 10:33:57;;;;;;;8.90;5.37;;;25.90;24.80;;;;;;5051199;28;20463;-46
2021/04/25 10:36:24;;;;;;;6.30;5.77;;;25.90;26.30;;;;;;5049851;28;20481;-48
2021/04/25 10:38:50;;;;;;;7.47;5.43;;;25.90;26.70;;;;;;5052108;28;20545;-45
2021/04/25 10:41:18;;;;;;;11.23;5.07;;;25.80;26.50;;;;;;5051163;28;20517;-49
2021/04/25 10:44:02;;;;;;;6.10;5.43;;;26.00;27.50;;;;;;5051394;28;20234;-46
2021/04/25 10:46:57;;;;;;;5.30;4.30;;;26.20;27.50;;;;;;5051352;28;20529;-47
2021/04/25 10:49:31;;;;;;;5.30;4.37;;;26.50;27.10;;;;;;5038345;28;20938;-46
2021/04/25 10:52:22;;;;;;;3.80;3.40;;;26.60;26.50;;;;;;5049092;28;20496;-48
2021/04/25 10:55:29;;;;;;;6.27;5.03;;;26.80;26.30;;;;;;5036202;28;20443;-45
2021/04/25 10:57:55;;;;;;;5.50;5.00;;;27.10;25.20;;;;;;5047167;28;20496;-48
2021/04/25 11:03:02;;;;;;;5.30;4.07;;;27.30;24.90;;;;;;5050280;28;20807;-45
2021/04/25 11:05:37;;;;;;;7.77;6.23;;;27.40;24.80;;;;;;5052169;28;20435;-47
2021/04/25 11:08:04;;;;;;;7.23;3.97;;;27.30;24.20;;;;;;5051713;28;20462;-45
2021/04/25 11:10:52;;;;;;;6.50;4.50;;;27.30;25.30;;;;;;5051705;28;20809;-44
2021/04/25 11:13:33;;;;;;;4.63;3.90;;;27.50;24.80;;;;;;5049992;28;20439;-45
2021/04/25 11:16:03;;;;;;;5.73;4.90;;;27.60;25.40;;;;;;5051959;28;20456;-45
2021/04/25 11:18:46;;;;;;;5.20;4.10;;;27.70;24.80;;;;;;5051774;28;20442;-45
2021/04/25 11:21:29;;;;;;;4.60;4.20;;;27.80;25.50;;;;;;5043656;28;20478;-45
2021/04/25 11:24:28;;;;;;;3.53;3.10;;;27.90;25.00;;;;;;5049469;28;20494;-44
2021/04/25 11:26:56;;;;;;;5.00;3.60;;;28.00;25.00;;;;;;5032017;28;20490;-46
2021/04/25 11:29:28;;;;;;;3.63;3.30;;;28.10;25.00;;;;;;5046869;28;20465;-45
2021/04/25 11:31:56;;;;;;;3.47;3.17;;;28.10;24.60;;;;;;5048703;28;21012;-47
2021/04/25 11:37:23;;;;;;;4.40;3.30;;;28.30;24.30;;;;;;5049245;28;20431;-45
2021/04/25 11:39:57;;;;;;;3.70;3.33;;;28.50;23.80;;;;;;5050738;28;20467;-44
2021/04/25 11:42:52;;;;;;;6.20;4.30;;;28.50;23.30;;;;;;5049708;28;20471;-47
2021/04/25 11:45:25;;;;;;;7.57;4.20;;;28.30;22.40;;;;;;5039647;28;20443;-46
2021/04/25 11:47:59;;;;;;;6.30;4.30;;;28.30;22.80;;;;;;5049895;28;20522;-47
2021/04/25 11:50:43;;;;;;;4.10;3.57;;;28.30;22.90;;;;;;5047258;28;20921;-45
2021/04/25 11:53:09;;;;;;;4.93;4.10;;;28.50;21.50;;;;;;5050010;28;20649;-46
2021/04/25 11:55:35;;;;;;;5.20;4.10;;;28.50;21.20;;;;;;5050062;28;20531;-45
2021/04/25 11:58:01;;;;;;;4.07;3.33;;;28.40;20.30;;;;;;5043168;28;21301;-48
2021/04/25 12:00:36;;;;;;;3.97;3.63;;;28.40;21.60;;;;;;5051282;28;20427;-47
2021/04/25 12:03:04;;;;;;;5.10;3.80;;;28.40;21.30;;;;;;5049479;28;20474;-48
2021/04/25 12:05:38;;;;;;;4.33;3.30;;;28.30;21.20;;;;;;5051778;28;20427;-46
2021/04/25 12:08:08;;;;;;;4.90;4.10;;;28.20;20.30;;;;;;5050723;28;20445;-48
2021/04/25 12:10:35;;;;;;;4.57;4.17;;;28.20;20.40;;;;;;5050327;28;20443;-46
2021/04/25 12:13:01;;;;;;;6.23;3.50;;;28.00;21.10;;;;;;5049367;28;20492;-45
2021/04/25 12:15:51;;;;;;;6.10;4.30;;;27.90;21.70;;;;;;5049698;28;20442;-46
2021/04/25 12:18:32;;;;;;;3.70;3.30;;;27.80;21.30;;;;;;5041704;28;20212;-47
2021/04/25 12:21:03;;;;;;;3.60;3.30;;;27.90;21.70;;;;;;5045546;28;20797;-45
2021/04/25 12:23:34;;;;;;;5.03;4.20;;;27.90;20.20;;;;;;5049269;28;20475;-49
2021/04/25 12:26:10;;;;;;;3.70;3.00;;;27.60;21.20;;;;;;5049512;28;20949;-45
2021/04/25 12:28:45;;;;;;;3.63;3.33;;;27.60;20.30;;;;;;5051059;28;20995;-47
2021/04/25 12:31:13;;;;;;;5.10;3.50;;;27.70;20.70;;;;;;5046323;28;20813;-44
2021/04/25 12:33:42;;;;;;;6.37;3.40;;;27.90;20.70;;;;;;5035224;28;20716;-45
2021/04/25 12:36:10;;;;;;;3.37;3.07;;;28.10;20.30;;;;;;5043157;28;20566;-48
2021/04/25 12:38:37;;;;;;;5.20;3.57;;;28.30;19.90;;;;;;5028787;28;20879;-45
2021/04/25 12:41:04;;;;;;;4.33;3.23;;;28.20;20.10;;;;;;5045188;28;20481;-45
2021/04/25 12:43:51;;;;;;;5.13;3.17;;;28.10;20.60;;;;;;5042952;28;20589;-49
2021/04/25 12:46:20;;;;;;;4.87;3.27;;;28.00;20.40;;;;;;5050068;28;20442;-48
2021/04/25 12:48:53;;;;;;;3.43;3.13;;;27.90;20.30;;;;;;5050974;28;20435;-48
2021/04/25 12:51:25;;;;;;;3.60;2.90;;;27.90;19.60;;;;;;5048771;28;21117;-50